TTPP/POS METAR and TAF weather

Enter ICAO airport designator
Station Type Date Time Source
TTPP METAR 2020/04/03 23:00 UTC NOAA

TTPP 032300Z 12010KT 9999 FEW022 27/25 Q1010 NOSIG


Station Type Date Time Source
TTPP Decoded METAR 2020/04/03 23:00 UTC NOAA

Piarco International Airport, Trinidad, Trinidad and Tobago (TTPP) 10-37N 061-21W 15M
Apr 03, 2020 - 07:00 PM EDT / 2020.04.03 2300 UTC
Wind: from the ESE (120 degrees) at 12 MPH (10 KT):0
Visibility: greater than 7 mile(s):0
Sky conditions: mostly clear
Temperature: 80 F (27 C)
Dew Point: 77 F (25 C)
Relative Humidity: 88%
Pressure (altimeter): 29.83 in. Hg (1010 hPa)
ob: TTPP 032300Z 12010KT 9999 FEW022 27/25 Q1010 NOSIG
cycle: 23

Station Type Date Time Source
TTPP TAF 2020/04/03 18:24 UTC NOAA

TAF TAF TTPP 031600Z 0318/0418 12012KT 9999 SCT025
BECMG 0323/0401 09005KT FEW018

Example: see airport list